TimeEDT,TemperatureF,Dew PointF,Humidity,Sea Level PressureIn,VisibilityMPH,Wind Direction,Wind SpeedMPH,Gust SpeedMPH,PrecipitationIn,Events,Conditions,WindDirDegrees,DateUTC
12:55 AM,79.9,73.0,80,29.98,10.0,East,16.1,-,N/A,,Clear,80,2012-10-15 04:55:00
1:55 AM,79.9,72.3,78,29.96,10.0,East,15.0,-,N/A,,Clear,90,2012-10-15 05:55:00
2:55 AM,79.9,73.4,80,29.96,10.0,East,13.8,-,N/A,,Partly Cloudy,80,2012-10-15 06:55:00
3:55 AM,79.9,72.7,79,29.93,10.0,ESE,12.7,-,N/A,,Clear,110,2012-10-15 07:55:00
4:55 AM,79.5,72.0,78,29.92,10.0,ESE,12.7,-,N/A,,Clear,110,2012-10-15 08:55:00
5:55 AM,79.3,71.2,76,29.92,10.0,East,11.5,-,N/A,,Clear,100,2012-10-15 09:55:00
6:55 AM,79.3,72.0,78,29.92,10.0,ESE,9.2,-,N/A,,Clear,110,2012-10-15 10:55:00
7:55 AM,79.0,72.3,80,29.93,10.0,East,6.9,-,N/A,,Clear,90,2012-10-15 11:55:00
8:55 AM,81.3,72.5,74,29.93,10.0,ESE,9.2,-,N/A,,Clear,110,2012-10-15 12:55:00
9:55 AM,81.7,72.9,74,29.95,10.0,East,5.8,-,N/A,,Clear,100,2012-10-15 13:55:00
10:55 AM,83.8,73.0,70,29.95,10.0,ENE,5.8,-,N/A,,Clear,60,2012-10-15 14:55:00
11:55 AM,83.5,72.5,69,29.95,10.0,ENE,5.8,-,N/A,,Clear,60,2012-10-15 15:55:00
12:55 PM,84.0,72.7,69,29.93,10.0,NE,8.1,-,N/A,,Clear,50,2012-10-15 16:55:00
1:55 PM,85.1,72.7,66,29.89,10.0,ENE,8.1,-,N/A,,Clear,60,2012-10-15 17:55:00
2:55 PM,81.9,72.3,73,29.88,10.0,ENE,6.9,-,N/A,,Clear,60,2012-10-15 18:55:00
3:55 PM,83.8,73.2,70,29.86,10.0,NE,11.5,-,N/A,,Clear,50,2012-10-15 19:55:00
4:33 PM,80.6,71.6,74,29.86,10.0,NNE,8.1,-,N/A,Rain,Light Rain,30,2012-10-15 20:33:00
4:55 PM,79.2,71.8,78,29.86,10.0,NNE,5.8,-,0.00,Rain,Light Rain,20,2012-10-15 20:55:00
5:01 PM,78.8,73.4,83,29.86,10.0,WNW,4.6,-,N/A,,Partly Cloudy,300,2012-10-15 21:01:00
5:55 PM,80.1,70.5,73,29.83,10.0,ENE,4.6,-,0.00,,Clear,70,2012-10-15 21:55:00
6:55 PM,78.8,72.1,80,29.83,10.0,NE,3.5,-,N/A,,Clear,40,2012-10-15 22:55:00
7:55 PM,78.8,71.6,78,29.83,10.0,Calm,Calm,-,N/A,,Mostly Cloudy,0,2012-10-15 23:55:00
8:55 PM,78.3,71.8,80,29.85,10.0,ENE,3.5,-,N/A,,Clear,60,2012-10-16 00:55:00
9:55 PM,77.4,72.3,84,29.86,10.0,NNW,3.5,-,N/A,,Clear,340,2012-10-16 01:55:00
10:55 PM,77.0,74.3,91,29.86,10.0,NW,5.8,-,N/A,,Clear,310,2012-10-16 02:55:00
11:55 PM,76.1,73.9,93,29.86,10.0,NW,4.6,-,N/A,,Clear,310,2012-10-16 03:55:00